Time;durP1;ratioP1;P1;durP2;ratioP2;P2;SDS_P1;SDS_P2;PMS_P1;PMS_P2;Temp;Humidity;BMP_temperature;BMP_pressure;BME280_temperature;BME280_humidity;BME280_pressure;Samples;Min_cycle;Max_cycle;Signal;HPM_P1;HPM_P2
2022/04/24 00:00:34;;;;;;;27.58;13.68;;;;;;;;;;5057572;28;20486;-57
2022/04/24 00:03:00;;;;;;;24.85;13.93;;;;;;;;;;5075124;28;20078;-56
2022/04/24 00:05:25;;;;;;;22.58;12.55;;;;;;;;;;5075144;28;20528;-58
2022/04/24 00:07:51;;;;;;;21.95;13.35;;;;;;;;;;5075063;28;20031;-57
2022/04/24 00:10:16;;;;;;;25.35;13.27;;;;;;;;;;5075080;28;20040;-57
2022/04/24 00:12:42;;;;;;;30.08;15.70;;;;;;;;;;5075252;28;20024;-59
2022/04/24 00:15:07;;;;;;;23.95;13.88;;;;;;;;;;5075223;28;20029;-58
2022/04/24 00:17:33;;;;;;;19.55;11.35;;;;;;;;;;5075150;28;20032;-44
2022/04/24 00:19:58;;;;;;;27.45;14.80;;;;;;;;;;5074723;28;20123;-42
2022/04/24 00:22:24;;;;;;;16.35;10.70;;;;;;;;;;5074802;28;20033;-42
2022/04/24 00:24:49;;;;;;;18.50;11.30;;;;;;;;;;5074772;28;20021;-45
2022/04/24 00:27:14;;;;;;;18.38;12.13;;;;;;;;;;5074962;28;20031;-46
2022/04/24 00:29:40;;;;;;;23.55;14.13;;;;;;;;;;5074571;28;20476;-42
2022/04/24 00:32:06;;;;;;;21.65;13.32;;;;;;;;;;5074865;28;20100;-42
2022/04/24 00:34:32;;;;;;;24.85;13.40;;;;;;;;;;5074542;28;20047;-49
2022/04/24 00:36:57;;;;;;;26.40;14.43;;;;;;;;;;5074494;28;20070;-42
2022/04/24 00:39:23;;;;;;;25.05;11.32;;;;;;;;;;5074356;28;20036;-59
2022/04/24 00:41:50;;;;;;;16.73;10.63;;;;;;;;;;5074421;28;20039;-57
2022/04/24 00:44:17;;;;;;;23.08;14.68;;;;;;;;;;5074377;28;20024;-58
2022/04/24 00:47:00;;;;;;;19.92;10.35;;;;;;;;;;5074590;28;20023;-57
2022/04/24 00:49:26;;;;;;;24.23;14.20;;;;;;;;;;5074044;28;20082;-58
2022/04/24 00:51:53;;;;;;;22.45;13.13;;;;;;;;;;5073623;28;20051;-58
2022/04/24 00:54:18;;;;;;;21.13;12.23;;;;;;;;;;5074041;28;20108;-56
2022/04/24 00:56:44;;;;;;;25.65;14.15;;;;;;;;;;5074404;28;20104;-58
2022/04/24 00:59:12;;;;;;;24.00;13.85;;;;;;;;;;5074316;28;20056;-58
2022/04/24 01:01:38;;;;;;;20.48;12.70;;;;;;;;;;5074309;28;20369;-58
2022/04/24 01:04:05;;;;;;;29.25;15.50;;;;;;;;;;5073997;28;20025;-57
2022/04/24 01:06:39;;;;;;;20.75;11.20;;;;;;;;;;5074261;28;20131;-55
2022/04/24 01:09:19;;;;;;;24.83;13.90;;;;;;;;;;5074248;28;20029;-52
2022/04/24 01:11:47;;;;;;;26.90;14.93;;;;;;;;;;5074118;28;20024;-57
2022/04/24 01:14:13;;;;;;;21.75;12.98;;;;;;;;;;5074101;28;20028;-59
2022/04/24 01:16:39;;;;;;;23.95;13.38;;;;;;;;;;5074081;28;20020;-45
2022/04/24 01:19:05;;;;;;;18.40;10.50;;;;;;;;;;5073627;28;20128;-46
2022/04/24 01:21:32;;;;;;;28.45;14.18;;;;;;;;;;5073916;28;20033;-44
2022/04/24 01:23:57;;;;;;;25.35;13.25;;;;;;;;;;5073838;28;20043;-47
2022/04/24 01:26:23;;;;;;;21.83;12.45;;;;;;;;;;5073538;28;20021;-43
2022/04/24 01:28:48;;;;;;;27.38;14.20;;;;;;;;;;5073905;28;20040;-42
2022/04/24 01:31:14;;;;;;;21.05;11.77;;;;;;;;;;5073746;28;20368;-48
2022/04/24 01:33:39;;;;;;;29.00;17.23;;;;;;;;;;5073453;28;20464;-47
2022/04/24 01:36:04;;;;;;;23.58;12.18;;;;;;;;;;5073679;28;20206;-49
2022/04/24 01:38:30;;;;;;;25.60;11.75;;;;;;;;;;5073262;28;20490;-41
2022/04/24 01:40:55;;;;;;;29.13;16.80;;;;;;;;;;5073284;28;20020;-46
2022/04/24 01:43:21;;;;;;;23.40;14.70;;;;;;;;;;5073259;28;20112;-58
2022/04/24 01:45:47;;;;;;;22.17;11.80;;;;;;;;;;5073473;28;20020;-57
2022/04/24 01:48:12;;;;;;;27.40;13.73;;;;;;;;;;5073126;28;20052;-56
2022/04/24 01:50:38;;;;;;;22.17;13.07;;;;;;;;;;5073165;28;20111;-45
2022/04/24 01:53:03;;;;;;;25.75;14.13;;;;;;;;;;5073332;28;20047;-57
2022/04/24 01:55:28;;;;;;;24.23;13.57;;;;;;;;;;5073291;28;20028;-56
2022/04/24 01:57:54;;;;;;;24.75;14.85;;;;;;;;;;5072988;28;20495;-58
2022/04/24 02:00:20;;;;;;;30.75;14.88;;;;;;;;;;5072871;28;20113;-53
2022/04/24 02:02:46;;;;;;;24.92;12.02;;;;;;;;;;5072942;28;20028;-53
2022/04/24 02:05:12;;;;;;;25.00;14.55;;;;;;;;;;5072609;28;20032;-52
2022/04/24 02:07:38;;;;;;;23.13;12.35;;;;;;;;;;5072770;28;20054;-58
2022/04/24 02:10:04;;;;;;;24.75;14.40;;;;;;;;;;5073066;28;20111;-57
2022/04/24 02:12:30;;;;;;;32.63;16.85;;;;;;;;;;5072986;28;20091;-57
2022/04/24 02:14:56;;;;;;;26.85;14.25;;;;;;;;;;5072994;28;20120;-58
2022/04/24 02:17:21;;;;;;;26.35;14.70;;;;;;;;;;5072664;28;20024;-57
2022/04/24 02:19:46;;;;;;;31.38;16.25;;;;;;;;;;5072608;28;20042;-57
2022/04/24 02:22:12;;;;;;;32.42;17.42;;;;;;;;;;5072856;28;20024;-56
2022/04/24 02:24:38;;;;;;;22.85;13.85;;;;;;;;;;5072918;28;20349;-58
2022/04/24 02:27:03;;;;;;;27.38;17.33;;;;;;;;;;5072817;28;20490;-48
2022/04/24 02:29:29;;;;;;;32.50;16.60;;;;;;;;;;5072815;28;20389;-56
2022/04/24 02:31:54;;;;;;;33.65;17.23;;;;;;;;;;5072742;28;20456;-58
2022/04/24 02:34:20;;;;;;;23.00;13.13;;;;;;;;;;5072733;28;20376;-58
2022/04/24 02:36:45;;;;;;;31.27;16.60;;;;;;;;;;5072511;28;20464;-58
2022/04/24 02:39:11;;;;;;;31.02;16.58;;;;;;;;;;5072382;28;20020;-56
2022/04/24 02:41:36;;;;;;;26.15;14.15;;;;;;;;;;5073008;28;20036;-57
2022/04/24 02:44:02;;;;;;;32.15;17.15;;;;;;;;;;5072706;28;20025;-55
2022/04/24 02:46:28;;;;;;;29.83;16.05;;;;;;;;;;5072629;28;20085;-54
2022/04/24 02:48:53;;;;;;;29.98;15.93;;;;;;;;;;5072162;28;20540;-58
2022/04/24 02:51:19;;;;;;;32.53;17.13;;;;;;;;;;5072649;28;20064;-56
2022/04/24 02:53:44;;;;;;;29.83;15.57;;;;;;;;;;5072566;28;20086;-57
2022/04/24 02:56:10;;;;;;;30.38;16.85;;;;;;;;;;5072238;28;20064;-58
2022/04/24 02:58:38;;;;;;;34.83;18.10;;;;;;;;;;5072110;28;20058;-58
2022/04/24 03:01:03;;;;;;;34.33;17.65;;;;;;;;;;5072478;28;20036;-59
2022/04/24 03:03:29;;;;;;;28.13;16.08;;;;;;;;;;5072174;28;20028;-58
2022/04/24 03:05:54;;;;;;;28.88;15.27;;;;;;;;;;5072157;28;20029;-50
2022/04/24 03:08:20;;;;;;;37.72;17.23;;;;;;;;;;5072454;28;20107;-47
2022/04/24 03:10:46;;;;;;;32.00;16.85;;;;;;;;;;5072371;28;20440;-43
2022/04/24 03:13:12;;;;;;;34.58;18.25;;;;;;;;;;5072030;28;20107;-49
2022/04/24 03:15:38;;;;;;;31.73;17.75;;;;;;;;;;5073478;28;20119;-50
2022/04/24 03:18:04;;;;;;;31.55;16.77;;;;;;;;;;5058125;28;20100;-59
2022/04/24 03:20:30;;;;;;;33.40;16.52;;;;;;;;;;5057995;28;20089;-57
2022/04/24 03:22:56;;;;;;;31.63;17.92;;;;;;;;;;5075881;28;20029;-57
2022/04/24 03:25:21;;;;;;;36.25;17.30;;;;;;;;;;5075800;28;20032;-57
2022/04/24 03:27:47;;;;;;;31.48;16.33;;;;;;;;;;5075834;28;20031;-58
2022/04/24 03:30:12;;;;;;;33.67;18.35;;;;;;;;;;5075733;28;20489;-57
2022/04/24 03:32:39;;;;;;;31.75;16.73;;;;;;;;;;5075709;28;20021;-58
2022/04/24 03:35:08;;;;;;;31.33;16.73;;;;;;;;;;5075696;28;20027;-57
2022/04/24 03:37:35;;;;;;;28.42;15.90;;;;;;;;;;5076181;28;20154;-56
2022/04/24 03:40:01;;;;;;;29.90;16.15;;;;;;;;;;5075605;28;20361;-58
2022/04/24 03:42:26;;;;;;;32.03;17.63;;;;;;;;;;5075815;28;20027;-57
2022/04/24 03:44:56;;;;;;;30.08;16.33;;;;;;;;;;5075499;28;20021;-58
2022/04/24 03:47:22;;;;;;;35.00;19.05;;;;;;;;;;5075506;28;20276;-53
2022/04/24 03:49:47;;;;;;;34.50;18.75;;;;;;;;;;5075295;28;20044;-52
2022/04/24 03:52:13;;;;;;;34.22;18.50;;;;;;;;;;5075366;28;20074;-55
2022/04/24 03:54:39;;;;;;;33.30;17.50;;;;;;;;;;5075293;28;20035;-46
2022/04/24 03:57:04;;;;;;;33.42;18.20;;;;;;;;;;5075273;28;20025;-45
2022/04/24 03:59:30;;;;;;;37.63;18.90;;;;;;;;;;5075177;28;20028;-48
2022/04/24 04:01:56;;;;;;;25.45;14.10;;;;;;;;;;5075222;28;20025;-47
2022/04/24 04:04:21;;;;;;;31.60;18.67;;;;;;;;;;5075128;28;20032;-45
2022/04/24 04:06:47;;;;;;;35.47;18.85;;;;;;;;;;5075220;28;20055;-47
2022/04/24 04:09:12;;;;;;;39.85;18.75;;;;;;;;;;5075035;28;20123;-57
2022/04/24 04:11:38;;;;;;;34.22;19.00;;;;;;;;;;5075068;28;20028;-55
2022/04/24 04:14:03;;;;;;;34.63;17.88;;;;;;;;;;5075265;28;20024;-56
2022/04/24 04:16:29;;;;;;;28.65;17.88;;;;;;;;;;5075015;28;20493;-58
2022/04/24 04:18:54;;;;;;;28.35;15.93;;;;;;;;;;5075098;28;20024;-58
2022/04/24 04:21:20;;;;;;;35.50;18.83;;;;;;;;;;5074826;28;20024;-59
2022/04/24 04:23:45;;;;;;;28.58;16.92;;;;;;;;;;5074784;28;20055;-58
2022/04/24 04:26:11;;;;;;;34.15;18.23;;;;;;;;;;5074983;28;20032;-54
2022/04/24 04:28:36;;;;;;;25.42;13.05;;;;;;;;;;5075000;28;20077;-50
2022/04/24 04:31:02;;;;;;;34.50;17.67;;;;;;;;;;5074649;28;20020;-49
2022/04/24 04:33:28;;;;;;;35.35;18.08;;;;;;;;;;5074583;28;20060;-56
2022/04/24 04:35:53;;;;;;;30.38;17.63;;;;;;;;;;5074577;28;20029;-57
2022/04/24 04:38:19;;;;;;;29.60;16.13;;;;;;;;;;5074529;28;20040;-59
2022/04/24 04:40:44;;;;;;;30.98;17.45;;;;;;;;;;5074448;28;20063;-56
2022/04/24 04:43:11;;;;;;;29.35;16.27;;;;;;;;;;5074728;28;20021;-59
2022/04/24 04:45:36;;;;;;;29.30;15.98;;;;;;;;;;5074285;28;20025;-55
2022/04/24 04:48:03;;;;;;;31.13;18.15;;;;;;;;;;5074153;28;20135;-56
2022/04/24 04:50:28;;;;;;;29.52;16.38;;;;;;;;;;5074575;28;20032;-58
2022/04/24 04:52:57;;;;;;;31.17;17.98;;;;;;;;;;5074170;28;20029;-58
2022/04/24 04:55:22;;;;;;;30.83;17.02;;;;;;;;;;5074158;28;20031;-58
2022/04/24 04:57:48;;;;;;;32.75;16.75;;;;;;;;;;5074380;28;20020;-56
2022/04/24 05:00:14;;;;;;;27.08;13.70;;;;;;;;;;5074061;28;20380;-58
2022/04/24 05:02:40;;;;;;;30.58;15.48;;;;;;;;;;5074073;28;20074;-58
2022/04/24 05:05:07;;;;;;;25.40;14.55;;;;;;;;;;5074235;28;20367;-58
2022/04/24 05:07:33;;;;;;;26.92;15.60;;;;;;;;;;5074195;28;20031;-55
2022/04/24 05:09:58;;;;;;;26.05;16.70;;;;;;;;;;5074161;28;20100;-52
2022/04/24 05:12:28;;;;;;;26.17;15.88;;;;;;;;;;5072597;28;20494;-58
2022/04/24 05:14:59;;;;;;;32.63;15.27;;;;;;;;;;5073780;28;20132;-55
2022/04/24 05:17:27;;;;;;;28.95;15.13;;;;;;;;;;5074054;28;20119;-58
2022/04/24 05:19:53;;;;;;;28.27;16.52;;;;;;;;;;5073904;28;20078;-59
2022/04/24 05:22:18;;;;;;;28.58;16.80;;;;;;;;;;5073649;28;20025;-59
2022/04/24 05:24:43;;;;;;;27.40;16.73;;;;;;;;;;5073928;28;20027;-57
2022/04/24 05:27:09;;;;;;;27.90;16.08;;;;;;;;;;5073867;28;20086;-57
2022/04/24 05:29:34;;;;;;;26.17;12.60;;;;;;;;;;5073490;28;20048;-58
2022/04/24 05:31:59;;;;;;;22.98;14.25;;;;;;;;;;5073538;28;20094;-58
2022/04/24 05:34:25;;;;;;;28.35;14.25;;;;;;;;;;5073712;28;20020;-56
2022/04/24 05:36:50;;;;;;;27.83;14.60;;;;;;;;;;5073362;28;20112;-57
2022/04/24 05:39:16;;;;;;;26.38;14.00;;;;;;;;;;5072750;28;20490;-58
2022/04/24 05:41:41;;;;;;;28.13;16.33;;;;;;;;;;5073559;28;20074;-56
2022/04/24 05:44:06;;;;;;;27.90;15.80;;;;;;;;;;5055456;28;20472;-52
2022/04/24 05:46:32;;;;;;;24.27;15.82;;;;;;;;;;5073135;28;20028;-57
2022/04/24 05:49:00;;;;;;;31.42;16.50;;;;;;;;;;5073049;28;20052;-56
2022/04/24 05:51:27;;;;;;;32.90;16.40;;;;;;;;;;5073324;28;20035;-58
2022/04/24 05:53:54;;;;;;;25.17;14.85;;;;;;;;;;5073340;28;20430;-58
2022/04/24 05:56:20;;;;;;;28.60;15.13;;;;;;;;;;5055503;28;20474;-58
2022/04/24 05:58:45;;;;;;;21.60;13.32;;;;;;;;;;5055125;28;20031;-57
2022/04/24 06:01:11;;;;;;;19.63;12.57;;;;;;;;;;5073215;28;20078;-52
2022/04/24 06:03:40;;;;;;;23.55;14.52;;;;;;;;;;5055237;28;20426;-59
2022/04/24 06:06:05;;;;;;;35.75;15.18;;;;;;;;;;5073127;28;20078;-59
2022/04/24 06:08:31;;;;;;;30.58;14.82;;;;;;;;;;5073091;28;20422;-59
2022/04/24 06:10:56;;;;;;;19.45;11.10;;;;;;;;;;5072743;28;20032;-57
2022/04/24 06:13:22;;;;;;;16.92;11.70;;;;;;;;;;5072702;28;20032;-59
2022/04/24 06:15:48;;;;;;;31.65;12.45;;;;;;;;;;5072677;28;20035;-58
2022/04/24 06:18:13;;;;;;;17.25;12.15;;;;;;;;;;5072948;28;20031;-58
2022/04/24 06:20:39;;;;;;;21.63;13.25;;;;;;;;;;5072684;28;20041;-59
2022/04/24 06:23:04;;;;;;;19.90;10.65;;;;;;;;;;5072611;28;20491;-59
2022/04/24 06:25:32;;;;;;;17.70;11.00;;;;;;;;;;5072533;28;20031;-56
2022/04/24 06:27:58;;;;;;;23.95;12.43;;;;;;;;;;5072563;28;20159;-58
2022/04/24 06:30:25;;;;;;;18.05;10.80;;;;;;;;;;5071272;28;20376;-60
2022/04/24 06:32:51;;;;;;;20.08;11.82;;;;;;;;;;5072753;28;20426;-59
2022/04/24 06:35:17;;;;;;;17.83;11.18;;;;;;;;;;5072507;28;20031;-58
2022/04/24 06:37:55;;;;;;;19.58;11.57;;;;;;;;;;5054990;28;20048;-57
2022/04/24 06:40:23;;;;;;;23.67;13.73;;;;;;;;;;5072667;28;20375;-58
2022/04/24 06:43:00;;;;;;;16.88;11.15;;;;;;;;;;5072467;28;20028;-59
2022/04/24 06:45:37;;;;;;;22.60;11.60;;;;;;;;;;5071167;28;20013;-57
2022/04/24 06:48:05;;;;;;;18.33;11.30;;;;;;;;;;5072454;28;20088;-59
2022/04/24 06:50:32;;;;;;;19.30;11.98;;;;;;;;;;5073617;28;20036;-59
2022/04/24 06:53:02;;;;;;;15.55;10.55;;;;;;;;;;5076516;28;20031;-57
2022/04/24 06:55:29;;;;;;;16.88;9.73;;;;;;;;;;5076478;28;20407;-59
2022/04/24 06:57:55;;;;;;;13.13;9.45;;;;;;;;;;5076733;28;20020;-59
2022/04/24 07:00:21;;;;;;;14.85;8.90;;;;;;;;;;5076645;28;20020;-56
2022/04/24 07:02:47;;;;;;;13.60;7.95;;;;;;;;;;5076584;28;20020;-58
2022/04/24 07:05:14;;;;;;;17.30;9.07;;;;;;;;;;5076535;28;20036;-57
2022/04/24 07:07:39;;;;;;;15.13;10.13;;;;;;;;;;5075999;28;20029;-51
2022/04/24 07:10:05;;;;;;;13.98;8.43;;;;;;;;;;5076392;28;20032;-58
2022/04/24 07:12:30;;;;;;;11.65;9.25;;;;;;;;;;5076331;28;20476;-57
2022/04/24 07:14:56;;;;;;;12.52;7.90;;;;;;;;;;5076319;28;20111;-58
2022/04/24 07:17:21;;;;;;;15.98;9.90;;;;;;;;;;5076257;28;20024;-56
2022/04/24 07:19:47;;;;;;;13.90;8.90;;;;;;;;;;5075879;28;20031;-56
2022/04/24 07:22:13;;;;;;;18.85;10.30;;;;;;;;;;5076220;28;20028;-58
2022/04/24 07:24:38;;;;;;;14.90;9.55;;;;;;;;;;5076085;28;20644;-59
2022/04/24 07:27:04;;;;;;;9.68;7.30;;;;;;;;;;5075791;28;20434;-57
2022/04/24 07:29:29;;;;;;;12.02;8.00;;;;;;;;;;5075769;28;20030;-58
2022/04/24 07:31:55;;;;;;;12.85;8.52;;;;;;;;;;5075949;28;20036;-48
2022/04/24 07:34:20;;;;;;;12.10;8.18;;;;;;;;;;5075999;28;20103;-47
2022/04/24 07:36:45;;;;;;;12.82;7.18;;;;;;;;;;5075635;28;20383;-51
2022/04/24 07:39:14;;;;;;;9.05;6.18;;;;;;;;;;5075397;28;20060;-55
2022/04/24 07:41:39;;;;;;;11.93;8.23;;;;;;;;;;5075753;28;20379;-56
2022/04/24 07:44:06;;;;;;;9.65;6.57;;;;;;;;;;5075407;28;20013;-57
2022/04/24 07:46:33;;;;;;;9.43;6.07;;;;;;;;;;5075379;28;20024;-56
2022/04/24 07:48:59;;;;;;;11.25;7.25;;;;;;;;;;5075283;28;20044;-59
2022/04/24 07:51:24;;;;;;;9.00;7.28;;;;;;;;;;5075341;28;20052;-54
2022/04/24 07:53:50;;;;;;;9.82;7.05;;;;;;;;;;5075529;28;20116;-59
2022/04/24 07:56:15;;;;;;;16.08;6.15;;;;;;;;;;5075530;28;20093;-56
2022/04/24 07:58:40;;;;;;;10.95;5.95;;;;;;;;;;5075138;28;20108;-56
2022/04/24 08:01:06;;;;;;;7.45;5.07;;;;;;;;;;5074659;28;20480;-58
2022/04/24 08:03:32;;;;;;;10.10;5.20;;;;;;;;;;5075144;28;20025;-58
2022/04/24 08:05:57;;;;;;;5.70;4.57;;;;;;;;;;5075167;28;20032;-52
2022/04/24 08:08:23;;;;;;;5.22;4.00;;;;;;;;;;5075002;28;20025;-54
2022/04/24 08:10:55;;;;;;;6.28;4.90;;;;;;;;;;5075195;28;20131;-59
2022/04/24 08:13:21;;;;;;;5.82;3.72;;;;;;;;;;5057086;28;20025;-57
2022/04/24 08:15:48;;;;;;;7.50;4.43;;;;;;;;;;5074869;28;20056;-59
2022/04/24 08:18:14;;;;;;;6.53;4.40;;;;;;;;;;5074745;28;20507;-59
2022/04/24 08:20:41;;;;;;;8.30;4.55;;;;;;;;;;5074910;28;20063;-58
2022/04/24 08:23:07;;;;;;;6.03;4.25;;;;;;;;;;5074532;28;20032;-49
2022/04/24 08:25:35;;;;;;;5.90;4.10;;;;;;;;;;5074858;28;20025;-51
2022/04/24 08:28:02;;;;;;;4.75;3.78;;;;;;;;;;5074543;28;20024;-49
2022/04/24 08:30:28;;;;;;;5.38;3.47;;;;;;;;;;5074761;28;20051;-58
2022/04/24 08:32:54;;;;;;;4.40;3.40;;;;;;;;;;5074554;28;20450;-58
2022/04/24 08:35:20;;;;;;;7.82;3.05;;;;;;;;;;5077209;28;20040;-57
2022/04/24 08:37:47;;;;;;;3.15;2.30;;;;;;;;;;5085055;28;20111;-58
2022/04/24 08:40:14;;;;;;;3.30;2.60;;;;;;;;;;5094807;28;20063;-58
2022/04/24 08:42:40;;;;;;;3.58;2.30;;;;;;;;;;5094652;28;20593;-58
2022/04/24 08:45:12;;;;;;;3.58;2.15;;;;;;;;;;5094867;28;20035;-59
2022/04/24 08:47:37;;;;;;;4.00;1.85;;;;;;;;;;5094327;28;20110;-58
2022/04/24 08:50:04;;;;;;;2.72;2.30;;;;;;;;;;5094728;28;20032;-57
2022/04/24 08:52:30;;;;;;;3.60;2.00;;;;;;;;;;5094642;28;20051;-57
2022/04/24 08:54:57;;;;;;;3.25;2.20;;;;;;;;;;5094464;28;20024;-57
2022/04/24 08:57:26;;;;;;;3.40;2.17;;;;;;;;;;5094611;28;20086;-49
2022/04/24 08:59:55;;;;;;;2.80;2.10;;;;;;;;;;5094511;28;20078;-51
2022/04/24 09:02:21;;;;;;;3.50;1.92;;;;;;;;;;5090120;28;20105;-45
2022/04/24 09:04:46;;;;;;;4.00;1.92;;;;;;;;;;5080139;28;20028;-57
2022/04/24 09:07:17;;;;;;;2.88;1.83;;;;;;;;;;5073739;28;20017;-47
2022/04/24 09:09:53;;;;;;;2.33;1.77;;;;;;;;;;5074078;28;20025;-50
2022/04/24 09:12:28;;;;;;;3.60;2.17;;;;;;;;;;5073976;28;20024;-56
2022/04/24 09:14:58;;;;;;;4.53;1.73;;;;;;;;;;5073432;28;20028;-59
2022/04/24 09:17:26;;;;;;;3.50;1.80;;;;;;;;;;5073997;28;20028;-56
2022/04/24 09:19:53;;;;;;;2.85;1.77;;;;;;;;;;5073586;28;20056;-56
2022/04/24 09:22:19;;;;;;;1.52;1.42;;;;;;;;;;5073853;28;20059;-58
2022/04/24 09:24:59;;;;;;;2.38;1.60;;;;;;;;;;5073487;28;20059;-48
2022/04/24 09:27:28;;;;;;;;;;;;;;;;;;5073805;28;20035;-47
2022/04/24 09:29:57;;;;;;;4.05;1.60;;;;;;;;;;5083202;28;19931;-46
2022/04/24 09:32:24;;;;;;;2.77;1.90;;;;;;;;;;5082040;28;20357;-45
2022/04/24 09:34:51;;;;;;;2.17;1.38;;;;;;;;;;5081498;28;20471;-46
2022/04/24 09:37:17;;;;;;;4.85;1.58;;;;;;;;;;5083005;28;20904;-56
2022/04/24 09:39:43;;;;;;;3.17;1.45;;;;;;;;;;5081613;28;20451;-47
2022/04/24 09:42:12;;;;;;;4.82;1.60;;;;;;;;;;5076743;28;20243;-56
2022/04/24 09:44:47;;;;;;;1.40;1.20;;;;;;;;;;5073315;28;20028;-59
2022/04/24 09:47:16;;;;;;;2.05;1.30;;;;;;;;;;5073495;28;20028;-59
2022/04/24 09:49:43;;;;;;;6.00;1.80;;;;;;;;;;5072941;28;20190;-59
2022/04/24 09:52:31;;;;;;;4.55;1.65;;;;;;;;;;5073413;28;20061;-59
2022/04/24 09:54:56;;;;;;;1.48;1.15;;;;;;;;;;5073331;28;20024;-59
2022/04/24 09:57:27;;;;;;;2.00;1.35;;;;;;;;;;5073141;28;20023;-61
2022/04/24 09:59:53;;;;;;;2.15;1.27;;;;;;;;;;5055055;28;20044;-60
2022/04/24 10:02:20;;;;;;;3.65;1.65;;;;;;;;;;5072901;28;20524;-56
2022/04/24 10:04:46;;;;;;;2.35;1.30;;;;;;;;;;5073004;28;20051;-48
2022/04/24 10:07:14;;;;;;;2.35;1.20;;;;;;;;;;5072736;28;20399;-52
2022/04/24 10:09:45;;;;;;;1.65;1.30;;;;;;;;;;5072980;28;20476;-45
2022/04/24 10:12:20;;;;;;;3.08;1.10;;;;;;;;;;5072970;28;20032;-42
2022/04/24 10:14:57;;;;;;;2.78;1.30;;;;;;;;;;5072746;28;20021;-48
2022/04/24 10:17:47;;;;;;;2.65;1.20;;;;;;;;;;5072921;28;20020;-43
2022/04/24 10:20:34;;;;;;;2.58;1.33;;;;;;;;;;5072095;28;20037;-44
2022/04/24 10:23:00;;;;;;;3.22;1.23;;;;;;;;;;5065152;28;20036;-59
2022/04/24 10:25:41;;;;;;;7.40;2.83;;;;;;;;;;5072217;28;20025;-58
2022/04/24 10:28:11;;;;;;;3.22;1.40;;;;;;;;;;5072381;28;20024;-59
2022/04/24 10:30:36;;;;;;;4.25;1.42;;;;;;;;;;5072366;28;20031;-57
2022/04/24 10:33:22;;;;;;;1.75;1.40;;;;;;;;;;5072310;28;20030;-50
2022/04/24 10:35:50;;;;;;;2.35;1.63;;;;;;;;;;5072368;28;20029;-57
2022/04/24 10:38:17;;;;;;;2.33;1.75;;;;;;;;;;5072462;28;20032;-52
2022/04/24 10:40:55;;;;;;;3.20;1.98;;;;;;;;;;5072639;28;20412;-47
2022/04/24 10:43:21;;;;;;;2.22;1.70;;;;;;;;;;5072406;28;20036;-48
2022/04/24 10:45:48;;;;;;;3.08;1.85;;;;;;;;;;5072603;28;20033;-56
2022/04/24 10:48:15;;;;;;;4.57;1.42;;;;;;;;;;5072300;28;20056;-55
2022/04/24 10:50:47;;;;;;;1.98;1.50;;;;;;;;;;5072203;28;20400;-53
2022/04/24 10:53:13;;;;;;;3.63;1.58;;;;;;;;;;5072639;28;20029;-59
2022/04/24 10:55:39;;;;;;;5.50;2.13;;;;;;;;;;5072568;28;20025;-59
2022/04/24 10:58:05;;;;;;;3.13;2.10;;;;;;;;;;5072494;28;20025;-56
2022/04/24 11:00:34;;;;;;;4.47;2.30;;;;;;;;;;5072482;28;20032;-59
2022/04/24 11:03:14;;;;;;;3.63;2.40;;;;;;;;;;5072475;28;20033;-57
2022/04/24 11:05:44;;;;;;;;;;;;;;;;;;5072657;28;20052;-59
2022/04/24 11:08:17;;;;;;;5.32;2.08;;;;;;;;;;5069091;28;19922;-60
2022/04/24 11:10:46;;;;;;;3.65;2.40;;;;;;;;;;5072471;28;20115;-60
2022/04/24 11:13:14;;;;;;;4.13;2.22;;;;;;;;;;5072155;28;20422;-59
2022/04/24 11:15:44;;;;;;;7.05;2.25;;;;;;;;;;5071846;28;20544;-56
2022/04/24 11:18:24;;;;;;;7.07;2.50;;;;;;;;;;5072326;28;20025;-58
2022/04/24 11:21:03;;;;;;;2.95;2.65;;;;;;;;;;5072256;28;20064;-56
2022/04/24 11:23:33;;;;;;;3.70;2.58;;;;;;;;;;5072160;28;20056;-59
2022/04/24 11:26:00;;;;;;;3.80;2.53;;;;;;;;;;5072220;28;20097;-60
2022/04/24 11:28:43;;;;;;;4.10;2.45;;;;;;;;;;5072017;28;20029;-60
2022/04/24 11:31:11;;;;;;;4.78;2.83;;;;;;;;;;5072115;28;20086;-59
2022/04/24 11:33:38;;;;;;;5.45;2.60;;;;;;;;;;5072106;28;20090;-60
2022/04/24 11:36:04;;;;;;;4.15;2.25;;;;;;;;;;5072084;28;20495;-59
2022/04/24 11:38:30;;;;;;;5.45;2.58;;;;;;;;;;5075529;28;20082;-61
2022/04/24 11:40:56;;;;;;;4.15;2.70;;;;;;;;;;5075428;28;20032;-44
2022/04/24 11:43:21;;;;;;;5.03;2.53;;;;;;;;;;5085034;28;20028;-61
2022/04/24 11:51:22;;;;;;;2.75;1.52;;;;;;;;;;5092195;28;20013;-53
2022/04/24 11:53:48;;;;;;;7.40;1.95;;;;;;;;;;5083048;28;20021;-61
2022/04/24 11:56:15;;;;;;;5.10;1.95;;;;;;;;;;5084729;28;20073;-50
2022/04/24 11:58:44;;;;;;;3.00;2.00;;;;;;;;;;5084730;28;20438;-59
2022/04/24 12:01:13;;;;;;;3.58;2.10;;;;;;;;;;5084664;28;20119;-56
2022/04/24 12:03:42;;;;;;;5.47;1.80;;;;;;;;;;5083226;28;20024;-42
2022/04/24 12:06:12;;;;;;;5.82;1.30;;;;;;;;;;5083656;28;20023;-52
2022/04/24 12:08:43;;;;;;;4.43;1.50;;;;;;;;;;5085160;28;20067;-43
2022/04/24 12:11:10;;;;;;;3.22;1.23;;;;;;;;;;5083652;28;20040;-60
2022/04/24 12:13:35;;;;;;;4.10;1.63;;;;;;;;;;5083425;28;20039;-60
2022/04/24 12:16:01;;;;;;;1.30;1.17;;;;;;;;;;5084608;28;20020;-60
2022/04/24 12:18:28;;;;;;;2.33;1.30;;;;;;;;;;5083219;28;20032;-60
2022/04/24 12:20:54;;;;;;;2.28;1.17;;;;;;;;;;5083609;28;20023;-60
2022/04/24 12:23:20;;;;;;;2.28;1.20;;;;;;;;;;5084784;28;20540;-61
2022/04/24 12:25:53;;;;;;;1.52;1.00;;;;;;;;;;5082793;28;20074;-61
2022/04/24 12:28:39;;;;;;;4.18;1.33;;;;;;;;;;5082566;28;20545;-56
2022/04/24 12:31:06;;;;;;;2.35;1.15;;;;;;;;;;5082107;28;20073;-60
2022/04/24 12:33:43;;;;;;;5.75;1.10;;;;;;;;;;5083630;28;20032;-60
2022/04/24 12:36:13;;;;;;;1.42;0.90;;;;;;;;;;5083353;28;20029;-57
2022/04/24 12:38:39;;;;;;;3.73;1.57;;;;;;;;;;5082431;28;20078;-47
2022/04/24 12:41:10;;;;;;;1.33;0.90;;;;;;;;;;5084221;28;20273;-49
2022/04/24 12:43:35;;;;;;;2.63;1.05;;;;;;;;;;5084024;28;20414;-60
2022/04/24 12:46:01;;;;;;;3.40;0.95;;;;;;;;;;5094731;28;20016;-58
2022/04/24 12:48:27;;;;;;;2.58;1.02;;;;;;;;;;5093080;28;20066;-60
2022/04/24 12:50:54;;;;;;;4.85;1.40;;;;;;;;;;5094374;28;20032;-60
2022/04/24 12:53:20;;;;;;;3.47;1.13;;;;;;;;;;5081982;28;20033;-56
2022/04/24 12:55:47;;;;;;;2.42;0.80;;;;;;;;;;5084096;28;20166;-60
2022/04/24 12:58:14;;;;;;;3.03;1.05;;;;;;;;;;5086155;28;20024;-59
2022/04/24 13:00:45;;;;;;;2.67;1.05;;;;;;;;;;5087390;28;20047;-60
2022/04/24 13:03:12;;;;;;;;;;;;;;;;;;5082339;28;20107;-60
2022/04/24 13:05:42;;;;;;;2.00;0.90;;;;;;;;;;5084167;28;19916;-53
2022/04/24 13:08:07;;;;;;;;;;;;;;;;;;5083078;28;20027;-61
2022/04/24 13:10:33;;;;;;;2.30;0.90;;;;;;;;;;5083862;28;19926;-59
2022/04/24 13:13:01;;;;;;;0.95;0.70;;;;;;;;;;5081839;28;20027;-52
2022/04/24 13:15:31;;;;;;;3.40;1.10;;;;;;;;;;5080773;28;20044;-48
2022/04/24 13:18:09;;;;;;;;;;;;;;;;;;5081970;28;20058;-47
2022/04/24 13:20:40;;;;;;;1.08;0.98;;;;;;;;;;5093754;28;19969;-42
2022/04/24 13:23:10;;;;;;;2.55;1.13;;;;;;;;;;5094199;28;20077;-56
2022/04/24 13:25:37;;;;;;;1.35;0.88;;;;;;;;;;5093696;28;20472;-57
2022/04/24 13:28:04;;;;;;;3.45;0.93;;;;;;;;;;5093882;28;20060;-53
2022/04/24 13:30:30;;;;;;;2.05;1.00;;;;;;;;;;5093652;28;20089;-42
2022/04/24 13:32:56;;;;;;;1.05;0.90;;;;;;;;;;5094024;28;20020;-42
2022/04/24 13:35:22;;;;;;;2.83;0.98;;;;;;;;;;5093619;28;20103;-44
2022/04/24 13:40:31;;;;;;;4.03;1.30;;;;;;;;;;5093585;28;20039;-44
2022/04/24 13:42:59;;;;;;;2.42;1.27;;;;;;;;;;5093509;28;20024;-44
2022/04/24 13:45:25;;;;;;;1.23;1.02;;;;;;;;;;5093455;28;20024;-42
2022/04/24 13:47:54;;;;;;;1.45;1.00;;;;;;;;;;5093467;28;20052;-60
2022/04/24 13:50:21;;;;;;;5.40;1.83;;;;;;;;;;5093460;28;20390;-59
2022/04/24 13:52:47;;;;;;;11.45;2.28;;;;;;;;;;5093306;28;20502;-59
2022/04/24 13:55:13;;;;;;;10.93;2.15;;;;;;;;;;5093239;28;20027;-59
2022/04/24 13:57:40;;;;;;;9.35;1.45;;;;;;;;;;5093294;28;20107;-57
2022/04/24 14:00:10;;;;;;;4.00;0.93;;;;;;;;;;5092716;28;20056;-60
2022/04/24 14:02:38;;;;;;;;;;;;;;;;;;5093828;28;20081;-59
2022/04/24 14:05:04;;;;;;;3.35;0.82;;;;;;;;;;5093135;28;19908;-52
2022/04/24 14:07:30;;;;;;;3.55;1.17;;;;;;;;;;5093417;28;20376;-59
2022/04/24 14:09:56;;;;;;;3.80;1.02;;;;;;;;;;5093249;28;20024;-60
2022/04/24 14:12:21;;;;;;;3.03;0.90;;;;;;;;;;5093011;28;20475;-58
2022/04/24 14:14:46;;;;;;;3.15;1.00;;;;;;;;;;5093298;28;20039;-60
2022/04/24 14:17:13;;;;;;;6.70;1.00;;;;;;;;;;5093174;28;20024;-59
2022/04/24 14:19:39;;;;;;;6.07;1.27;;;;;;;;;;5093127;28;20032;-58
2022/04/24 14:22:05;;;;;;;1.60;0.90;;;;;;;;;;5092877;28;20028;-60
2022/04/24 14:24:32;;;;;;;4.32;1.00;;;;;;;;;;5092370;28;20073;-60
2022/04/24 14:26:58;;;;;;;3.72;0.98;;;;;;;;;;5091431;28;20028;-59
2022/04/24 14:29:23;;;;;;;3.30;1.10;;;;;;;;;;5091534;28;20487;-57
2022/04/24 14:31:49;;;;;;;3.85;1.02;;;;;;;;;;5091039;28;20120;-61
2022/04/24 14:34:15;;;;;;;1.80;0.70;;;;;;;;;;5091226;28;20035;-63
2022/04/24 14:36:41;;;;;;;2.67;0.90;;;;;;;;;;5091344;28;20020;-65
2022/04/24 14:39:08;;;;;;;5.38;1.10;;;;;;;;;;5090892;28;20387;-58